sensor_id;sensor_type;location;lat;lon;timestamp;P1;durP1;ratioP1;P2;durP2;ratioP2
65039;SDS011;51606;45.000;38.612;2022-09-30T04:11:13;2.10;;;1.80;;
65039;SDS011;51606;45.000;38.612;2022-09-30T04:13:39;3.38;;;2.55;;
65039;SDS011;51606;45.000;38.612;2022-09-30T04:16:06;4.55;;;3.05;;
65039;SDS011;51606;45.000;38.612;2022-09-30T04:18:37;9.55;;;5.80;;
65039;SDS011;51606;45.000;38.612;2022-09-30T04:21:04;5.88;;;4.50;;
65039;SDS011;51606;45.000;38.612;2022-09-30T04:23:38;10.07;;;4.47;;
65039;SDS011;51606;45.000;38.612;2022-09-30T04:26:06;5.73;;;3.67;;
65039;SDS011;51606;45.000;38.612;2022-09-30T04:28:34;7.70;;;3.80;;
65039;SDS011;51606;45.000;38.612;2022-09-30T04:31:01;5.05;;;3.15;;
65039;SDS011;51606;45.000;38.612;2022-09-30T04:33:29;3.95;;;3.22;;
65039;SDS011;51606;45.000;38.612;2022-09-30T04:35:55;4.30;;;3.25;;
65039;SDS011;51606;45.000;38.612;2022-09-30T04:38:23;5.15;;;2.65;;
65039;SDS011;51606;45.000;38.612;2022-09-30T04:40:50;2.63;;;2.35;;
65039;SDS011;51606;45.000;38.612;2022-09-30T04:43:17;4.05;;;2.80;;
65039;SDS011;51606;45.000;38.612;2022-09-30T04:45:44;3.80;;;2.78;;
65039;SDS011;51606;45.000;38.612;2022-09-30T04:48:11;7.07;;;2.63;;
65039;SDS011;51606;45.000;38.612;2022-09-30T04:50:41;4.60;;;2.75;;
65039;SDS011;51606;45.000;38.612;2022-09-30T04:53:08;8.07;;;3.03;;
65039;SDS011;51606;45.000;38.612;2022-09-30T04:55:36;4.53;;;2.80;;
65039;SDS011;51606;45.000;38.612;2022-09-30T04:58:02;5.07;;;2.70;;
65039;SDS011;51606;45.000;38.612;2022-09-30T05:00:29;4.60;;;2.47;;
65039;SDS011;51606;45.000;38.612;2022-09-30T05:02:57;3.70;;;2.67;;
65039;SDS011;51606;45.000;38.612;2022-09-30T05:05:23;6.07;;;2.88;;
65039;SDS011;51606;45.000;38.612;2022-09-30T05:07:50;3.55;;;2.42;;
65039;SDS011;51606;45.000;38.612;2022-09-30T05:10:16;10.40;;;3.25;;
65039;SDS011;51606;45.000;38.612;2022-09-30T05:12:43;4.07;;;2.50;;
65039;SDS011;51606;45.000;38.612;2022-09-30T05:15:10;6.45;;;2.88;;
65039;SDS011;51606;45.000;38.612;2022-09-30T05:17:37;5.45;;;2.90;;
65039;SDS011;51606;45.000;38.612;2022-09-30T05:20:03;6.90;;;3.58;;
65039;SDS011;51606;45.000;38.612;2022-09-30T05:22:35;5.65;;;3.63;;
65039;SDS011;51606;45.000;38.612;2022-09-30T05:25:02;6.63;;;4.05;;
65039;SDS011;51606;45.000;38.612;2022-09-30T05:27:29;9.55;;;3.95;;
65039;SDS011;51606;45.000;38.612;2022-09-30T05:29:55;4.72;;;2.75;;
65039;SDS011;51606;45.000;38.612;2022-09-30T05:32:22;8.15;;;4.00;;
65039;SDS011;51606;45.000;38.612;2022-09-30T05:34:49;11.15;;;5.57;;
65039;SDS011;51606;45.000;38.612;2022-09-30T05:37:16;7.38;;;3.45;;
65039;SDS011;51606;45.000;38.612;2022-09-30T05:39:42;7.68;;;2.90;;
65039;SDS011;51606;45.000;38.612;2022-09-30T05:42:08;6.55;;;3.53;;
65039;SDS011;51606;45.000;38.612;2022-09-30T05:44:35;7.32;;;3.15;;
65039;SDS011;51606;45.000;38.612;2022-09-30T05:47:01;4.47;;;2.88;;
65039;SDS011;51606;45.000;38.612;2022-09-30T05:49:27;6.63;;;3.10;;
65039;SDS011;51606;45.000;38.612;2022-09-30T05:51:54;4.90;;;2.55;;
65039;SDS011;51606;45.000;38.612;2022-09-30T05:54:20;3.35;;;2.00;;
65039;SDS011;51606;45.000;38.612;2022-09-30T05:56:47;12.23;;;2.88;;
65039;SDS011;51606;45.000;38.612;2022-09-30T05:59:13;5.50;;;2.72;;
65039;SDS011;51606;45.000;38.612;2022-09-30T06:01:40;5.30;;;2.50;;
65039;SDS011;51606;45.000;38.612;2022-09-30T06:04:06;4.53;;;2.38;;
65039;SDS011;51606;45.000;38.612;2022-09-30T06:06:32;3.63;;;2.20;;
65039;SDS011;51606;45.000;38.612;2022-09-30T06:08:58;3.47;;;2.20;;
65039;SDS011;51606;45.000;38.612;2022-09-30T06:11:25;8.00;;;2.47;;
65039;SDS011;51606;45.000;38.612;2022-09-30T06:13:52;6.88;;;2.35;;
65039;SDS011;51606;45.000;38.612;2022-09-30T06:16:18;3.25;;;2.17;;
65039;SDS011;51606;45.000;38.612;2022-09-30T06:18:45;4.10;;;2.60;;
65039;SDS011;51606;45.000;38.612;2022-09-30T06:21:12;6.18;;;2.88;;
65039;SDS011;51606;45.000;38.612;2022-09-30T06:23:40;2.55;;;1.52;;
65039;SDS011;51606;45.000;38.612;2022-09-30T06:26:07;8.80;;;4.57;;
65039;SDS011;51606;45.000;38.612;2022-09-30T06:28:36;3.92;;;2.63;;
65039;SDS011;51606;45.000;38.612;2022-09-30T06:31:03;3.97;;;2.83;;
65039;SDS011;51606;45.000;38.612;2022-09-30T06:33:30;7.95;;;2.50;;
65039;SDS011;51606;45.000;38.612;2022-09-30T06:35:56;3.72;;;2.47;;
65039;SDS011;51606;45.000;38.612;2022-09-30T06:38:23;6.07;;;2.30;;
65039;SDS011;51606;45.000;38.612;2022-09-30T06:40:51;5.80;;;2.15;;
65039;SDS011;51606;45.000;38.612;2022-09-30T06:43:24;5.35;;;2.40;;
65039;SDS011;51606;45.000;38.612;2022-09-30T06:45:50;3.42;;;1.98;;
65039;SDS011;51606;45.000;38.612;2022-09-30T06:48:17;2.95;;;2.05;;
65039;SDS011;51606;45.000;38.612;2022-09-30T06:50:44;5.60;;;2.30;;
65039;SDS011;51606;45.000;38.612;2022-09-30T06:53:11;5.18;;;2.30;;
65039;SDS011;51606;45.000;38.612;2022-09-30T06:55:38;3.25;;;2.13;;
65039;SDS011;51606;45.000;38.612;2022-09-30T06:58:05;7.90;;;2.33;;
65039;SDS011;51606;45.000;38.612;2022-09-30T07:01:00;7.72;;;2.30;;
65039;SDS011;51606;45.000;38.612;2022-09-30T07:03:31;5.25;;;2.63;;
65039;SDS011;51606;45.000;38.612;2022-09-30T07:06:00;3.13;;;2.20;;
65039;SDS011;51606;45.000;38.612;2022-09-30T07:08:31;3.20;;;2.00;;
65039;SDS011;51606;45.000;38.612;2022-09-30T07:11:04;7.78;;;2.10;;
65039;SDS011;51606;45.000;38.612;2022-09-30T07:13:39;9.18;;;2.25;;
65039;SDS011;51606;45.000;38.612;2022-09-30T07:19:15;3.05;;;1.90;;
65039;SDS011;51606;45.000;38.612;2022-09-30T07:21:42;4.15;;;1.85;;
65039;SDS011;51606;45.000;38.612;2022-09-30T07:24:08;3.95;;;1.98;;
65039;SDS011;51606;45.000;38.612;2022-09-30T07:26:34;11.27;;;2.33;;
65039;SDS011;51606;45.000;38.612;2022-09-30T07:29:05;6.55;;;2.13;;
65039;SDS011;51606;45.000;38.612;2022-09-30T07:31:31;5.38;;;1.45;;
65039;SDS011;51606;45.000;38.612;2022-09-30T07:33:59;4.22;;;1.90;;
65039;SDS011;51606;45.000;38.612;2022-09-30T07:36:27;6.72;;;2.10;;
65039;SDS011;51606;45.000;38.612;2022-09-30T07:38:55;5.88;;;1.75;;
65039;SDS011;51606;45.000;38.612;2022-09-30T07:41:53;3.17;;;2.20;;
65039;SDS011;51606;45.000;38.612;2022-09-30T07:44:20;5.72;;;2.08;;
65039;SDS011;51606;45.000;38.612;2022-09-30T07:46:46;5.07;;;2.03;;
65039;SDS011;51606;45.000;38.612;2022-09-30T07:49:15;1.92;;;1.60;;
65039;SDS011;51606;45.000;38.612;2022-09-30T07:51:52;7.00;;;1.60;;
65039;SDS011;51606;45.000;38.612;2022-09-30T07:54:22;3.55;;;1.52;;
65039;SDS011;51606;45.000;38.612;2022-09-30T07:56:56;11.75;;;2.22;;
65039;SDS011;51606;45.000;38.612;2022-09-30T07:59:23;7.50;;;1.90;;
65039;SDS011;51606;45.000;38.612;2022-09-30T08:01:51;9.07;;;1.98;;
65039;SDS011;51606;45.000;38.612;2022-09-30T08:04:19;5.13;;;1.92;;
65039;SDS011;51606;45.000;38.612;2022-09-30T08:06:48;2.10;;;1.80;;
65039;SDS011;51606;45.000;38.612;2022-09-30T08:09:19;6.15;;;1.88;;
65039;SDS011;51606;45.000;38.612;2022-09-30T08:11:46;3.65;;;1.73;;
65039;SDS011;51606;45.000;38.612;2022-09-30T08:14:34;1.73;;;1.40;;
65039;SDS011;51606;45.000;38.612;2022-09-30T08:17:00;5.20;;;1.70;;
65039;SDS011;51606;45.000;38.612;2022-09-30T08:19:27;3.75;;;1.70;;
65039;SDS011;51606;45.000;38.612;2022-09-30T08:21:55;5.97;;;1.80;;
65039;SDS011;51606;45.000;38.612;2022-09-30T08:24:22;2.25;;;1.55;;
65039;SDS011;51606;45.000;38.612;2022-09-30T08:26:50;1.98;;;1.40;;
65039;SDS011;51606;45.000;38.612;2022-09-30T08:29:17;2.15;;;1.30;;
65039;SDS011;51606;45.000;38.612;2022-09-30T08:31:44;1.52;;;1.38;;
65039;SDS011;51606;45.000;38.612;2022-09-30T08:34:10;2.05;;;1.38;;
65039;SDS011;51606;45.000;38.612;2022-09-30T08:36:36;2.55;;;1.30;;
65039;SDS011;51606;45.000;38.612;2022-09-30T08:39:03;7.32;;;1.40;;
65039;SDS011;51606;45.000;38.612;2022-09-30T08:44:44;1.90;;;1.30;;
65039;SDS011;51606;45.000;38.612;2022-09-30T08:47:26;2.10;;;1.35;;
65039;SDS011;51606;45.000;38.612;2022-09-30T08:53:53;3.17;;;1.60;;
65039;SDS011;51606;45.000;38.612;2022-09-30T08:56:25;3.75;;;1.85;;
65039;SDS011;51606;45.000;38.612;2022-09-30T08:58:57;5.72;;;1.70;;
65039;SDS011;51606;45.000;38.612;2022-09-30T09:01:32;4.90;;;1.55;;
65039;SDS011;51606;45.000;38.612;2022-09-30T09:04:01;8.77;;;1.60;;
65039;SDS011;51606;45.000;38.612;2022-09-30T09:06:31;7.38;;;1.73;;
65039;SDS011;51606;45.000;38.612;2022-09-30T09:09:14;2.72;;;1.52;;
65039;SDS011;51606;45.000;38.612;2022-09-30T09:12:02;7.07;;;3.45;;
65039;SDS011;51606;45.000;38.612;2022-09-30T09:20:48;4.00;;;1.60;;
65039;SDS011;51606;45.000;38.612;2022-09-30T09:23:32;2.25;;;1.50;;
65039;SDS011;51606;45.000;38.612;2022-09-30T09:25:59;4.68;;;1.90;;
65039;SDS011;51606;45.000;38.612;2022-09-30T09:29:30;3.30;;;1.50;;
65039;SDS011;51606;45.000;38.612;2022-09-30T09:31:22;5.45;;;1.40;;
65039;SDS011;51606;45.000;38.612;2022-09-30T09:33:50;4.00;;;1.55;;
65039;SDS011;51606;45.000;38.612;2022-09-30T09:36:24;3.78;;;1.42;;
65039;SDS011;51606;45.000;38.612;2022-09-30T09:44:54;3.65;;;1.67;;
65039;SDS011;51606;45.000;38.612;2022-09-30T09:47:27;3.25;;;1.70;;
65039;SDS011;51606;45.000;38.612;2022-09-30T09:49:58;1.73;;;1.30;;
65039;SDS011;51606;45.000;38.612;2022-09-30T09:58:12;4.00;;;1.55;;
65039;SDS011;51606;45.000;38.612;2022-09-30T10:00:42;10.10;;;1.40;;
65039;SDS011;51606;45.000;38.612;2022-09-30T10:05:40;2.75;;;1.15;;
65039;SDS011;51606;45.000;38.612;2022-09-30T10:08:28;1.17;;;1.05;;
65039;SDS011;51606;45.000;38.612;2022-09-30T10:10:59;4.60;;;1.55;;
65039;SDS011;51606;45.000;38.612;2022-09-30T10:13:29;1.88;;;1.00;;
65039;SDS011;51606;45.000;38.612;2022-09-30T10:16:05;5.50;;;1.58;;
65039;SDS011;51606;45.000;38.612;2022-09-30T10:18:45;2.75;;;1.10;;
65039;SDS011;51606;45.000;38.612;2022-09-30T10:21:21;2.13;;;1.60;;
65039;SDS011;51606;45.000;38.612;2022-09-30T10:23:49;3.20;;;1.45;;
65039;SDS011;51606;45.000;38.612;2022-09-30T10:26:20;8.82;;;1.58;;
65039;SDS011;51606;45.000;38.612;2022-09-30T10:31:52;3.63;;;1.52;;
65039;SDS011;51606;45.000;38.612;2022-09-30T10:37:00;2.30;;;1.45;;
65039;SDS011;51606;45.000;38.612;2022-09-30T10:39:34;6.20;;;1.33;;
65039;SDS011;51606;45.000;38.612;2022-09-30T10:44:31;2.63;;;1.40;;
65039;SDS011;51606;45.000;38.612;2022-09-30T10:47:13;3.65;;;1.70;;
65039;SDS011;51606;45.000;38.612;2022-09-30T10:49:46;2.40;;;1.30;;
65039;SDS011;51606;45.000;38.612;2022-09-30T10:52:17;5.93;;;1.27;;
65039;SDS011;51606;45.000;38.612;2022-09-30T10:57:36;5.88;;;1.67;;
65039;SDS011;51606;45.000;38.612;2022-09-30T11:00:24;2.55;;;1.58;;
65039;SDS011;51606;45.000;38.612;2022-09-30T11:05:34;3.42;;;1.35;;
65039;SDS011;51606;45.000;38.612;2022-09-30T11:08:17;2.65;;;1.20;;
65039;SDS011;51606;45.000;38.612;2022-09-30T11:13:43;2.67;;;1.65;;
65039;SDS011;51606;45.000;38.612;2022-09-30T11:16:23;2.70;;;1.38;;
65039;SDS011;51606;45.000;38.612;2022-09-30T11:19:01;2.20;;;1.30;;
65039;SDS011;51606;45.000;38.612;2022-09-30T11:21:32;2.83;;;1.33;;
65039;SDS011;51606;45.000;38.612;2022-09-30T11:24:07;2.95;;;1.50;;
65039;SDS011;51606;45.000;38.612;2022-09-30T11:32:49;4.18;;;1.25;;
65039;SDS011;51606;45.000;38.612;2022-09-30T11:38:51;5.00;;;1.50;;
65039;SDS011;51606;45.000;38.612;2022-09-30T11:41:23;4.25;;;1.25;;
65039;SDS011;51606;45.000;38.612;2022-09-30T11:44:09;1.45;;;1.30;;
65039;SDS011;51606;45.000;38.612;2022-09-30T11:46:52;2.95;;;1.17;;
65039;SDS011;51606;45.000;38.612;2022-09-30T11:49:34;1.85;;;1.00;;
65039;SDS011;51606;45.000;38.612;2022-09-30T11:52:54;2.00;;;1.27;;
65039;SDS011;51606;45.000;38.612;2022-09-30T11:55:46;9.02;;;2.65;;
65039;SDS011;51606;45.000;38.612;2022-09-30T11:58:20;8.50;;;2.05;;
65039;SDS011;51606;45.000;38.612;2022-09-30T12:01:11;2.42;;;1.45;;
65039;SDS011;51606;45.000;38.612;2022-09-30T12:04:05;2.10;;;1.00;;
65039;SDS011;51606;45.000;38.612;2022-09-30T12:07:04;1.45;;;1.25;;
65039;SDS011;51606;45.000;38.612;2022-09-30T12:12:23;2.17;;;1.30;;
65039;SDS011;51606;45.000;38.612;2022-09-30T12:17:26;3.65;;;1.40;;
65039;SDS011;51606;45.000;38.612;2022-09-30T12:20:17;7.18;;;1.85;;
65039;SDS011;51606;45.000;38.612;2022-09-30T12:22:51;4.70;;;1.90;;
65039;SDS011;51606;45.000;38.612;2022-09-30T12:25:28;6.32;;;2.53;;
65039;SDS011;51606;45.000;38.612;2022-09-30T12:28:02;11.25;;;2.40;;
65039;SDS011;51606;45.000;38.612;2022-09-30T12:30:53;5.85;;;2.40;;
65039;SDS011;51606;45.000;38.612;2022-09-30T12:33:36;9.70;;;4.28;;
65039;SDS011;51606;45.000;38.612;2022-09-30T12:39:15;9.93;;;5.00;;
65039;SDS011;51606;45.000;38.612;2022-09-30T12:48:04;21.75;;;4.45;;
65039;SDS011;51606;45.000;38.612;2022-09-30T12:50:37;8.60;;;2.60;;
65039;SDS011;51606;45.000;38.612;2022-09-30T12:53:16;5.38;;;2.42;;
65039;SDS011;51606;45.000;38.612;2022-09-30T12:55:47;8.75;;;2.47;;
65039;SDS011;51606;45.000;38.612;2022-09-30T12:58:23;12.20;;;2.88;;
65039;SDS011;51606;45.000;38.612;2022-09-30T13:06:25;9.70;;;2.53;;
65039;SDS011;51606;45.000;38.612;2022-09-30T13:14:20;7.13;;;2.33;;
65039;SDS011;51606;45.000;38.612;2022-09-30T13:17:01;7.72;;;2.20;;
65039;SDS011;51606;45.000;38.612;2022-09-30T13:19:46;2.15;;;1.65;;
65039;SDS011;51606;45.000;38.612;2022-09-30T13:27:37;5.13;;;1.80;;
65039;SDS011;51606;45.000;38.612;2022-09-30T13:30:30;2.78;;;1.73;;
65039;SDS011;51606;45.000;38.612;2022-09-30T13:40:48;14.82;;;5.95;;
65039;SDS011;51606;45.000;38.612;2022-09-30T13:43:23;19.00;;;7.28;;
65039;SDS011;51606;45.000;38.612;2022-09-30T13:46:45;17.35;;;6.25;;
65039;SDS011;51606;45.000;38.612;2022-09-30T13:48:59;14.80;;;5.60;;
65039;SDS011;51606;45.000;38.612;2022-09-30T13:51:32;22.13;;;5.65;;
65039;SDS011;51606;45.000;38.612;2022-09-30T13:56:58;21.95;;;5.45;;
65039;SDS011;51606;45.000;38.612;2022-09-30T14:05:16;25.85;;;4.38;;
65039;SDS011;51606;45.000;38.612;2022-09-30T14:19:39;8.10;;;2.28;;
65039;SDS011;51606;45.000;38.612;2022-09-30T14:24:54;9.73;;;2.60;;
65039;SDS011;51606;45.000;38.612;2022-09-30T14:32:44;5.82;;;2.40;;
65039;SDS011;51606;45.000;38.612;2022-09-30T14:35:24;5.65;;;2.72;;
65039;SDS011;51606;45.000;38.612;2022-09-30T14:38:02;5.68;;;2.13;;
65039;SDS011;51606;45.000;38.612;2022-09-30T14:40:53;5.03;;;2.58;;
65039;SDS011;51606;45.000;38.612;2022-09-30T14:43:23;9.48;;;3.15;;
65039;SDS011;51606;45.000;38.612;2022-09-30T14:49:01;7.53;;;2.40;;
65039;SDS011;51606;45.000;38.612;2022-09-30T14:51:53;11.43;;;2.88;;
65039;SDS011;51606;45.000;38.612;2022-09-30T14:54:23;12.93;;;2.55;;
65039;SDS011;51606;45.000;38.612;2022-09-30T14:56:55;7.68;;;2.80;;
65039;SDS011;51606;45.000;38.612;2022-09-30T14:59:29;22.40;;;3.67;;
65039;SDS011;51606;45.000;38.612;2022-09-30T15:01:59;11.82;;;3.00;;
65039;SDS011;51606;45.000;38.612;2022-09-30T15:04:27;11.15;;;2.55;;
65039;SDS011;51606;45.000;38.612;2022-09-30T15:07:00;5.40;;;2.53;;
65039;SDS011;51606;45.000;38.612;2022-09-30T15:09:34;5.47;;;2.55;;
65039;SDS011;51606;45.000;38.612;2022-09-30T15:12:10;5.77;;;2.70;;
65039;SDS011;51606;45.000;38.612;2022-09-30T15:14:46;20.48;;;3.08;;
65039;SDS011;51606;45.000;38.612;2022-09-30T15:17:36;5.75;;;3.00;;
65039;SDS011;51606;45.000;38.612;2022-09-30T15:20:21;23.38;;;4.15;;
65039;SDS011;51606;45.000;38.612;2022-09-30T15:22:58;15.17;;;3.50;;
65039;SDS011;51606;45.000;38.612;2022-09-30T15:25:36;22.40;;;3.75;;
65039;SDS011;51606;45.000;38.612;2022-09-30T15:28:04;26.52;;;4.50;;
65039;SDS011;51606;45.000;38.612;2022-09-30T15:30:33;20.33;;;4.82;;
65039;SDS011;51606;45.000;38.612;2022-09-30T15:33:00;24.60;;;5.72;;
65039;SDS011;51606;45.000;38.612;2022-09-30T15:35:29;46.20;;;6.35;;
65039;SDS011;51606;45.000;38.612;2022-09-30T15:38:17;64.72;;;8.02;;
65039;SDS011;51606;45.000;38.612;2022-09-30T15:40:51;55.85;;;9.13;;
65039;SDS011;51606;45.000;38.612;2022-09-30T15:43:34;79.45;;;9.40;;
65039;SDS011;51606;45.000;38.612;2022-09-30T15:48:44;38.03;;;9.55;;
65039;SDS011;51606;45.000;38.612;2022-09-30T15:51:24;23.00;;;5.22;;
65039;SDS011;51606;45.000;38.612;2022-09-30T15:54:00;57.78;;;7.95;;
65039;SDS011;51606;45.000;38.612;2022-09-30T15:56:48;31.75;;;6.80;;
65039;SDS011;51606;45.000;38.612;2022-09-30T15:59:14;25.08;;;5.55;;
65039;SDS011;51606;45.000;38.612;2022-09-30T16:01:42;26.38;;;6.10;;
65039;SDS011;51606;45.000;38.612;2022-09-30T16:04:21;26.33;;;5.25;;
65039;SDS011;51606;45.000;38.612;2022-09-30T16:06:50;12.13;;;4.18;;
65039;SDS011;51606;45.000;38.612;2022-09-30T16:09:48;12.02;;;4.40;;
65039;SDS011;51606;45.000;38.612;2022-09-30T16:12:16;21.60;;;4.20;;
65039;SDS011;51606;45.000;38.612;2022-09-30T16:15:10;9.50;;;4.40;;
65039;SDS011;51606;45.000;38.612;2022-09-30T16:17:38;10.00;;;4.22;;
65039;SDS011;51606;45.000;38.612;2022-09-30T16:23:28;9.13;;;4.15;;
65039;SDS011;51606;45.000;38.612;2022-09-30T16:28:41;11.48;;;3.58;;
65039;SDS011;51606;45.000;38.612;2022-09-30T16:31:10;7.95;;;3.63;;
65039;SDS011;51606;45.000;38.612;2022-09-30T16:33:43;16.67;;;4.90;;
65039;SDS011;51606;45.000;38.612;2022-09-30T16:36:10;10.18;;;4.60;;
65039;SDS011;51606;45.000;38.612;2022-09-30T16:38:37;8.65;;;4.47;;
65039;SDS011;51606;45.000;38.612;2022-09-30T16:41:04;11.88;;;4.05;;
65039;SDS011;51606;45.000;38.612;2022-09-30T16:43:30;5.60;;;3.78;;
65039;SDS011;51606;45.000;38.612;2022-09-30T16:45:57;5.93;;;3.60;;
65039;SDS011;51606;45.000;38.612;2022-09-30T16:48:26;6.90;;;4.00;;
65039;SDS011;51606;45.000;38.612;2022-09-30T16:55:54;4.32;;;3.15;;
65039;SDS011;51606;45.000;38.612;2022-09-30T16:58:21;12.70;;;4.80;;
65039;SDS011;51606;45.000;38.612;2022-09-30T17:00:48;8.55;;;3.95;;
65039;SDS011;51606;45.000;38.612;2022-09-30T17:03:15;11.07;;;4.70;;
65039;SDS011;51606;45.000;38.612;2022-09-30T17:05:46;10.82;;;4.35;;
65039;SDS011;51606;45.000;38.612;2022-09-30T17:08:17;19.02;;;6.15;;
65039;SDS011;51606;45.000;38.612;2022-09-30T17:10:45;30.90;;;8.32;;
65039;SDS011;51606;45.000;38.612;2022-09-30T17:13:15;45.33;;;15.13;;
65039;SDS011;51606;45.000;38.612;2022-09-30T17:15:48;39.28;;;12.82;;
65039;SDS011;51606;45.000;38.612;2022-09-30T17:18:16;25.92;;;11.95;;
65039;SDS011;51606;45.000;38.612;2022-09-30T17:20:43;27.13;;;12.35;;
65039;SDS011;51606;45.000;38.612;2022-09-30T17:23:11;25.63;;;12.57;;
65039;SDS011;51606;45.000;38.612;2022-09-30T17:25:38;24.70;;;10.65;;
65039;SDS011;51606;45.000;38.612;2022-09-30T17:28:09;20.63;;;7.45;;
65039;SDS011;51606;45.000;38.612;2022-09-30T17:30:36;13.55;;;6.72;;
65039;SDS011;51606;45.000;38.612;2022-09-30T17:33:06;20.77;;;7.53;;
65039;SDS011;51606;45.000;38.612;2022-09-30T17:36:10;18.33;;;6.35;;
65039;SDS011;51606;45.000;38.612;2022-09-30T17:38:37;15.57;;;6.63;;
65039;SDS011;51606;45.000;38.612;2022-09-30T17:41:05;9.95;;;5.88;;
65039;SDS011;51606;45.000;38.612;2022-09-30T17:43:51;18.90;;;6.70;;
65039;SDS011;51606;45.000;38.612;2022-09-30T17:46:17;15.93;;;7.38;;
65039;SDS011;51606;45.000;38.612;2022-09-30T17:48:47;18.60;;;9.68;;
65039;SDS011;51606;45.000;38.612;2022-09-30T17:51:15;28.75;;;8.40;;
65039;SDS011;51606;45.000;38.612;2022-09-30T17:53:42;17.63;;;5.60;;
65039;SDS011;51606;45.000;38.612;2022-09-30T17:56:14;12.43;;;6.40;;
65039;SDS011;51606;45.000;38.612;2022-09-30T17:58:44;11.23;;;5.90;;
65039;SDS011;51606;45.000;38.612;2022-09-30T18:01:12;17.08;;;6.22;;
65039;SDS011;51606;45.000;38.612;2022-09-30T18:03:40;15.55;;;6.30;;
65039;SDS011;51606;45.000;38.612;2022-09-30T18:06:06;19.17;;;7.30;;
65039;SDS011;51606;45.000;38.612;2022-09-30T18:08:33;21.48;;;8.43;;
65039;SDS011;51606;45.000;38.612;2022-09-30T18:11:00;33.45;;;9.52;;
65039;SDS011;51606;45.000;38.612;2022-09-30T18:13:27;32.42;;;10.02;;
65039;SDS011;51606;45.000;38.612;2022-09-30T18:15:54;24.15;;;8.65;;
65039;SDS011;51606;45.000;38.612;2022-09-30T18:19:00;30.80;;;6.82;;
65039;SDS011;51606;45.000;38.612;2022-09-30T18:21:29;21.42;;;7.05;;
65039;SDS011;51606;45.000;38.612;2022-09-30T18:23:56;15.85;;;7.10;;
65039;SDS011;51606;45.000;38.612;2022-09-30T18:26:23;13.10;;;6.22;;
65039;SDS011;51606;45.000;38.612;2022-09-30T18:28:53;13.57;;;6.63;;
65039;SDS011;51606;45.000;38.612;2022-09-30T18:31:40;13.18;;;5.93;;
65039;SDS011;51606;45.000;38.612;2022-09-30T18:34:07;17.55;;;5.70;;
65039;SDS011;51606;45.000;38.612;2022-09-30T18:36:34;15.38;;;6.78;;
65039;SDS011;51606;45.000;38.612;2022-09-30T18:39:01;14.27;;;6.22;;
65039;SDS011;51606;45.000;38.612;2022-09-30T18:41:29;15.55;;;6.15;;
65039;SDS011;51606;45.000;38.612;2022-09-30T18:43:57;20.92;;;6.05;;
65039;SDS011;51606;45.000;38.612;2022-09-30T18:46:28;11.05;;;6.47;;
65039;SDS011;51606;45.000;38.612;2022-09-30T18:48:55;12.35;;;5.82;;
65039;SDS011;51606;45.000;38.612;2022-09-30T18:51:22;9.20;;;5.28;;
65039;SDS011;51606;45.000;38.612;2022-09-30T18:53:53;21.02;;;6.15;;
65039;SDS011;51606;45.000;38.612;2022-09-30T18:56:26;16.33;;;6.45;;
65039;SDS011;51606;45.000;38.612;2022-09-30T18:59:00;14.13;;;6.47;;
65039;SDS011;51606;45.000;38.612;2022-09-30T19:01:29;13.00;;;5.43;;
65039;SDS011;51606;45.000;38.612;2022-09-30T19:04:00;7.25;;;4.85;;
65039;SDS011;51606;45.000;38.612;2022-09-30T19:06:27;10.20;;;5.05;;
65039;SDS011;51606;45.000;38.612;2022-09-30T19:08:53;8.40;;;4.82;;
65039;SDS011;51606;45.000;38.612;2022-09-30T19:11:20;7.03;;;4.60;;
65039;SDS011;51606;45.000;38.612;2022-09-30T19:13:49;16.65;;;5.00;;
65039;SDS011;51606;45.000;38.612;2022-09-30T19:16:17;5.70;;;4.28;;
65039;SDS011;51606;45.000;38.612;2022-09-30T19:18:44;7.05;;;3.67;;
65039;SDS011;51606;45.000;38.612;2022-09-30T19:21:12;6.57;;;3.63;;
65039;SDS011;51606;45.000;38.612;2022-09-30T19:23:40;6.07;;;3.30;;
65039;SDS011;51606;45.000;38.612;2022-09-30T19:26:07;7.85;;;3.30;;
65039;SDS011;51606;45.000;38.612;2022-09-30T19:28:35;10.52;;;3.15;;
65039;SDS011;51606;45.000;38.612;2022-09-30T19:31:06;5.80;;;3.15;;
65039;SDS011;51606;45.000;38.612;2022-09-30T19:33:34;4.60;;;3.13;;
65039;SDS011;51606;45.000;38.612;2022-09-30T19:36:21;9.18;;;3.08;;
65039;SDS011;51606;45.000;38.612;2022-09-30T19:38:49;7.40;;;3.42;;
65039;SDS011;51606;45.000;38.612;2022-09-30T19:41:15;7.60;;;3.55;;
65039;SDS011;51606;45.000;38.612;2022-09-30T19:43:42;7.32;;;3.60;;
65039;SDS011;51606;45.000;38.612;2022-09-30T19:46:11;4.85;;;3.22;;
65039;SDS011;51606;45.000;38.612;2022-09-30T19:48:37;6.28;;;3.42;;
65039;SDS011;51606;45.000;38.612;2022-09-30T19:51:09;7.50;;;3.20;;
65039;SDS011;51606;45.000;38.612;2022-09-30T19:53:40;4.85;;;3.05;;
65039;SDS011;51606;45.000;38.612;2022-09-30T19:56:12;6.55;;;3.53;;
65039;SDS011;51606;45.000;38.612;2022-09-30T19:58:42;5.70;;;2.97;;
65039;SDS011;51606;45.000;38.612;2022-09-30T20:01:14;8.93;;;3.13;;
